Date,TemperatureHighF,TemperatureAvgF,TemperatureLowF,DewpointHighF,DewpointAvgF,DewpointLowF,HumidityHigh,HumidityAvg,HumidityLow,PressureMaxIn,PressureMinIn,WindSpeedMaxMPH,WindSpeedAvgMPH,GustSpeedMaxMPH,PrecipitationSumIn
2013-2-1,58.3,47.6,37.8,45.9,40.3,34.6,89,77,56,30.19,30.11,4,0,4,0.00
2013-2-2,53.3,46.3,41.6,46.3,40.4,34.8,91,80,68,30.24,30.17,6,1,6,0.00
2013-2-3,52.9,45.4,40.5,47.4,42.1,37.9,92,88,80,30.21,30.12,5,1,5,0.00
2013-2-4,55.8,45.8,41.0,49.4,42.2,38.3,92,87,78,30.13,30.04,5,1,5,0.00
2013-2-5,48.6,42.3,38.7,45.8,40.1,36.6,94,92,89,30.14,30.02,5,1,5,0.00
2013-2-6,48.4,39.9,32.4,44.7,36.9,30.3,94,89,83,30.15,30.07,4,1,4,0.00
2013-2-7,43.2,38.6,34.9,40.0,36.3,32.8,93,91,87,30.07,29.93,5,1,5,0.22
2013-2-8,45.9,38.0,32.8,40.8,34.5,30.7,93,87,79,30.00,29.89,6,1,6,0.01
2013-2-9,49.9,40.6,33.7,40.7,33.9,28.2,84,77,65,30.06,29.97,5,1,5,0.00
2013-2-10,54.0,43.0,33.8,43.8,36.4,30.1,88,78,65,30.07,30.01,5,1,5,0.00
2013-2-11,56.0,45.4,35.8,45.9,38.4,32.2,88,77,63,30.19,30.07,5,1,5,0.00
2013-2-12,54.7,45.4,37.6,45.9,39.5,33.2,87,80,66,30.31,30.18,5,1,5,0.00
2013-2-13,57.6,44.9,36.2,49.6,40.3,32.9,91,84,72,30.30,30.20,5,0,5,0.00
2013-2-14,65.5,52.4,41.0,52.0,42.2,35.0,86,70,48,30.24,30.15,4,1,4,0.00
2013-2-15,63.0,52.1,42.1,45.6,38.7,32.1,73,61,47,30.26,30.20,4,1,4,0.00
2013-2-16,61.4,50.2,42.1,49.3,40.8,36.1,81,70,60,30.25,30.05,4,1,4,0.00
2013-2-17,55.1,45.4,36.9,43.6,37.2,30.0,81,73,60,30.06,29.96,5,1,5,0.00
2013-2-18,41.9,37.6,32.0,36.5,33.4,0.0,100,85,80,32.60,29.88,6,1,6,14.84
2013-2-19,38.5,35.6,32.8,35.5,32.7,29.7,91,89,87,29.89,29.71,7,1,7,14.84
2013-2-20,47.0,37.9,31.7,39.2,33.4,28.8,90,84,68,30.05,29.82,9,1,9,14.84
2013-2-21,49.3,41.4,34.4,41.2,35.3,30.6,87,79,70,30.15,30.04,6,1,6,14.84
2013-2-22,51.1,42.0,36.5,40.9,34.6,29.7,87,75,64,30.30,30.14,116,1,116,15.03
2013-2-23,48.1,40.7,35.1,38.9,34.0,31.0,89,77,56,30.24,30.14,9,1,9,14.84
2013-2-24,54.7,43.4,35.3,41.5,35.0,29.1,81,73,57,30.24,30.14,6,1,6,14.84
2013-2-25,54.7,44.3,37.8,40.0,35.1,28.1,86,71,39,30.23,30.15,7,2,7,14.84
2013-2-26,58.0,45.1,35.1,43.8,34.0,26.9,76,65,53,30.20,30.14,5,1,5,14.84
2013-2-27,57.1,45.5,36.2,44.0,36.8,29.2,87,72,56,30.33,30.19,7,1,7,14.84
2013-2-28,59.0,50.5,46.3,53.0,46.6,42.3,90,87,78,30.42,30.32,6,1,6,14.84